Terminal Aerodrome Forecast
Issued by NWS

Home | Current Version | Previous Version | Text Only | Print | Product List | Glossary On
Versions: 1 2 3 4 5 6 7 8 9 10 11 12 13 14 15
000
FTUS44 KOUN 222341
TAFHBR
TAF
KHBR 222341Z 2300/2324 08008KT P6SM VCTS OVC050CB
      TEMPO 2300/2303 VRB20G30KT 4SM -TSRA BKN035CB
     FM230300 05006KT P6SM SCT035 BKN060
     FM230900 33012KT P6SM BKN035
     FM231400 36016G23KT P6SM BKN035=

USA.gov is the U.S. government's official web portal to all federal, state and local government web resources and services.